sensor_id;sensor_type;location;lat;lon;timestamp;P1;durP1;ratioP1;P2;durP2;ratioP2
41661;SDS011;27351;45.992;12.666;2023-12-20T00:02:19;15.00;;;7.00;;
41661;SDS011;27351;45.992;12.666;2023-12-20T00:04:44;17.00;;;6.17;;
41661;SDS011;27351;45.992;12.666;2023-12-20T00:07:10;13.63;;;5.97;;
41661;SDS011;27351;45.992;12.666;2023-12-20T00:09:36;11.95;;;5.78;;
41661;SDS011;27351;45.992;12.666;2023-12-20T00:12:01;11.55;;;6.18;;
41661;SDS011;27351;45.992;12.666;2023-12-20T00:14:27;13.05;;;6.43;;
41661;SDS011;27351;45.992;12.666;2023-12-20T00:16:53;13.27;;;6.27;;
41661;SDS011;27351;45.992;12.666;2023-12-20T00:19:19;14.33;;;6.20;;
41661;SDS011;27351;45.992;12.666;2023-12-20T00:21:44;11.60;;;5.30;;
41661;SDS011;27351;45.992;12.666;2023-12-20T00:24:10;15.48;;;6.75;;
41661;SDS011;27351;45.992;12.666;2023-12-20T00:26:35;14.55;;;6.95;;
41661;SDS011;27351;45.992;12.666;2023-12-20T00:29:01;11.80;;;6.25;;
41661;SDS011;27351;45.992;12.666;2023-12-20T00:31:27;12.85;;;6.10;;
41661;SDS011;27351;45.992;12.666;2023-12-20T00:33:52;16.38;;;6.60;;
41661;SDS011;27351;45.992;12.666;2023-12-20T00:36:18;17.13;;;7.30;;
41661;SDS011;27351;45.992;12.666;2023-12-20T00:38:44;15.67;;;8.40;;
41661;SDS011;27351;45.992;12.666;2023-12-20T00:41:09;13.67;;;7.27;;
41661;SDS011;27351;45.992;12.666;2023-12-20T00:43:35;15.70;;;8.00;;
41661;SDS011;27351;45.992;12.666;2023-12-20T00:46:00;15.48;;;7.55;;
41661;SDS011;27351;45.992;12.666;2023-12-20T00:48:26;15.98;;;7.93;;
41661;SDS011;27351;45.992;12.666;2023-12-20T00:50:57;18.00;;;7.65;;
41661;SDS011;27351;45.992;12.666;2023-12-20T00:53:24;15.98;;;7.32;;
41661;SDS011;27351;45.992;12.666;2023-12-20T00:55:52;14.57;;;7.55;;
41661;SDS011;27351;45.992;12.666;2023-12-20T00:58:19;14.18;;;8.32;;
41661;SDS011;27351;45.992;12.666;2023-12-20T01:01:08;16.45;;;7.90;;
41661;SDS011;27351;45.992;12.666;2023-12-20T01:04:24;15.52;;;7.43;;
41661;SDS011;27351;45.992;12.666;2023-12-20T01:06:52;16.40;;;7.85;;
41661;SDS011;27351;45.992;12.666;2023-12-20T01:09:20;15.50;;;7.15;;
41661;SDS011;27351;45.992;12.666;2023-12-20T01:12:11;14.47;;;6.50;;
41661;SDS011;27351;45.992;12.666;2023-12-20T01:15:09;15.43;;;6.65;;
41661;SDS011;27351;45.992;12.666;2023-12-20T01:17:39;16.70;;;7.30;;
41661;SDS011;27351;45.992;12.666;2023-12-20T01:20:05;14.98;;;6.95;;
41661;SDS011;27351;45.992;12.666;2023-12-20T01:22:43;13.25;;;6.53;;
41661;SDS011;27351;45.992;12.666;2023-12-20T01:25:11;14.70;;;7.20;;
41661;SDS011;27351;45.992;12.666;2023-12-20T01:27:36;15.27;;;8.13;;
41661;SDS011;27351;45.992;12.666;2023-12-20T01:30:03;13.75;;;7.07;;
41661;SDS011;27351;45.992;12.666;2023-12-20T01:32:29;16.75;;;8.02;;
41661;SDS011;27351;45.992;12.666;2023-12-20T01:34:55;13.15;;;7.43;;
41661;SDS011;27351;45.992;12.666;2023-12-20T01:37:20;17.20;;;7.15;;
41661;SDS011;27351;45.992;12.666;2023-12-20T01:39:49;14.55;;;7.45;;
41661;SDS011;27351;45.992;12.666;2023-12-20T01:42:15;14.27;;;7.78;;
41661;SDS011;27351;45.992;12.666;2023-12-20T01:44:41;16.10;;;8.60;;
41661;SDS011;27351;45.992;12.666;2023-12-20T01:47:07;15.13;;;7.87;;
41661;SDS011;27351;45.992;12.666;2023-12-20T01:49:33;15.27;;;7.37;;
41661;SDS011;27351;45.992;12.666;2023-12-20T01:52:00;17.80;;;8.70;;
41661;SDS011;27351;45.992;12.666;2023-12-20T01:54:58;16.77;;;7.97;;
41661;SDS011;27351;45.992;12.666;2023-12-20T01:57:30;14.30;;;6.90;;
41661;SDS011;27351;45.992;12.666;2023-12-20T01:59:56;14.55;;;8.18;;
41661;SDS011;27351;45.992;12.666;2023-12-20T02:02:22;15.02;;;7.03;;
41661;SDS011;27351;45.992;12.666;2023-12-20T02:04:49;13.02;;;6.72;;
41661;SDS011;27351;45.992;12.666;2023-12-20T02:07:18;14.38;;;6.80;;
41661;SDS011;27351;45.992;12.666;2023-12-20T02:09:45;13.13;;;6.28;;
41661;SDS011;27351;45.992;12.666;2023-12-20T02:12:10;11.83;;;5.20;;
41661;SDS011;27351;45.992;12.666;2023-12-20T02:14:36;12.70;;;5.85;;
41661;SDS011;27351;45.992;12.666;2023-12-20T02:17:02;12.27;;;4.73;;
41661;SDS011;27351;45.992;12.666;2023-12-20T02:19:28;10.17;;;4.37;;
41661;SDS011;27351;45.992;12.666;2023-12-20T02:22:07;10.38;;;4.80;;
41661;SDS011;27351;45.992;12.666;2023-12-20T02:24:33;11.05;;;4.63;;
41661;SDS011;27351;45.992;12.666;2023-12-20T02:27:00;8.13;;;4.18;;
41661;SDS011;27351;45.992;12.666;2023-12-20T02:29:26;8.38;;;3.70;;
41661;SDS011;27351;45.992;12.666;2023-12-20T02:31:52;8.27;;;3.92;;
41661;SDS011;27351;45.992;12.666;2023-12-20T02:34:17;8.03;;;4.07;;
41661;SDS011;27351;45.992;12.666;2023-12-20T02:36:43;8.50;;;3.60;;
41661;SDS011;27351;45.992;12.666;2023-12-20T02:39:09;9.13;;;3.67;;
41661;SDS011;27351;45.992;12.666;2023-12-20T02:41:34;9.85;;;4.47;;
41661;SDS011;27351;45.992;12.666;2023-12-20T02:44:01;8.50;;;3.70;;
41661;SDS011;27351;45.992;12.666;2023-12-20T02:46:26;7.75;;;3.40;;
41661;SDS011;27351;45.992;12.666;2023-12-20T02:48:52;7.47;;;3.13;;
41661;SDS011;27351;45.992;12.666;2023-12-20T02:51:17;6.23;;;3.20;;
41661;SDS011;27351;45.992;12.666;2023-12-20T02:53:43;5.23;;;2.23;;
41661;SDS011;27351;45.992;12.666;2023-12-20T02:56:08;5.50;;;2.50;;
41661;SDS011;27351;45.992;12.666;2023-12-20T02:58:34;5.73;;;2.10;;
41661;SDS011;27351;45.992;12.666;2023-12-20T03:01:00;4.60;;;2.40;;
41661;SDS011;27351;45.992;12.666;2023-12-20T03:03:25;4.80;;;2.00;;
41661;SDS011;27351;45.992;12.666;2023-12-20T03:05:53;3.75;;;1.88;;
41661;SDS011;27351;45.992;12.666;2023-12-20T03:08:21;4.20;;;1.90;;
41661;SDS011;27351;45.992;12.666;2023-12-20T03:10:47;4.97;;;1.75;;
41661;SDS011;27351;45.992;12.666;2023-12-20T03:13:16;4.45;;;1.88;;
41661;SDS011;27351;45.992;12.666;2023-12-20T03:15:42;3.72;;;1.55;;
41661;SDS011;27351;45.992;12.666;2023-12-20T03:18:08;4.50;;;1.50;;
41661;SDS011;27351;45.992;12.666;2023-12-20T03:20:33;3.57;;;1.87;;
41661;SDS011;27351;45.992;12.666;2023-12-20T03:22:59;3.37;;;1.50;;
41661;SDS011;27351;45.992;12.666;2023-12-20T03:25:25;2.95;;;1.45;;
41661;SDS011;27351;45.992;12.666;2023-12-20T03:27:52;4.05;;;1.73;;
41661;SDS011;27351;45.992;12.666;2023-12-20T03:30:34;4.05;;;1.75;;
41661;SDS011;27351;45.992;12.666;2023-12-20T03:33:00;3.50;;;1.65;;
41661;SDS011;27351;45.992;12.666;2023-12-20T03:35:25;2.80;;;1.40;;
41661;SDS011;27351;45.992;12.666;2023-12-20T03:37:51;2.70;;;1.57;;
41661;SDS011;27351;45.992;12.666;2023-12-20T03:40:17;4.17;;;1.80;;
41661;SDS011;27351;45.992;12.666;2023-12-20T03:42:44;2.92;;;1.58;;
41661;SDS011;27351;45.992;12.666;2023-12-20T03:45:14;2.47;;;1.67;;
41661;SDS011;27351;45.992;12.666;2023-12-20T03:47:40;3.75;;;1.85;;
41661;SDS011;27351;45.992;12.666;2023-12-20T03:50:06;3.13;;;1.67;;
41661;SDS011;27351;45.992;12.666;2023-12-20T03:52:31;2.58;;;1.42;;
41661;SDS011;27351;45.992;12.666;2023-12-20T03:54:57;3.08;;;1.35;;
41661;SDS011;27351;45.992;12.666;2023-12-20T03:57:23;2.87;;;1.60;;
41661;SDS011;27351;45.992;12.666;2023-12-20T03:59:48;4.00;;;1.80;;
41661;SDS011;27351;45.992;12.666;2023-12-20T04:02:14;5.50;;;2.22;;
41661;SDS011;27351;45.992;12.666;2023-12-20T04:04:39;4.22;;;2.03;;
41661;SDS011;27351;45.992;12.666;2023-12-20T04:07:05;4.60;;;1.88;;
41661;SDS011;27351;45.992;12.666;2023-12-20T04:09:30;4.05;;;1.90;;
41661;SDS011;27351;45.992;12.666;2023-12-20T04:11:56;6.80;;;2.30;;
41661;SDS011;27351;45.992;12.666;2023-12-20T04:14:22;6.00;;;2.47;;
41661;SDS011;27351;45.992;12.666;2023-12-20T04:16:47;5.80;;;2.30;;
41661;SDS011;27351;45.992;12.666;2023-12-20T04:19:13;8.32;;;2.88;;
41661;SDS011;27351;45.992;12.666;2023-12-20T04:21:38;4.93;;;2.53;;
41661;SDS011;27351;45.992;12.666;2023-12-20T04:24:06;5.37;;;2.40;;
41661;SDS011;27351;45.992;12.666;2023-12-20T04:26:34;6.15;;;2.10;;
41661;SDS011;27351;45.992;12.666;2023-12-20T04:29:01;6.43;;;2.53;;
41661;SDS011;27351;45.992;12.666;2023-12-20T04:31:26;5.13;;;2.42;;
41661;SDS011;27351;45.992;12.666;2023-12-20T04:33:52;4.05;;;2.38;;
41661;SDS011;27351;45.992;12.666;2023-12-20T04:36:17;5.53;;;2.10;;
41661;SDS011;27351;45.992;12.666;2023-12-20T04:38:43;4.05;;;2.40;;
41661;SDS011;27351;45.992;12.666;2023-12-20T04:41:09;7.13;;;3.00;;
41661;SDS011;27351;45.992;12.666;2023-12-20T04:43:34;5.27;;;2.47;;
41661;SDS011;27351;45.992;12.666;2023-12-20T04:46:00;6.27;;;2.50;;
41661;SDS011;27351;45.992;12.666;2023-12-20T04:48:25;4.80;;;2.37;;
41661;SDS011;27351;45.992;12.666;2023-12-20T04:50:51;5.33;;;2.63;;
41661;SDS011;27351;45.992;12.666;2023-12-20T04:53:16;6.40;;;3.17;;
41661;SDS011;27351;45.992;12.666;2023-12-20T04:55:42;5.30;;;2.23;;
41661;SDS011;27351;45.992;12.666;2023-12-20T04:58:07;5.83;;;2.57;;
41661;SDS011;27351;45.992;12.666;2023-12-20T05:00:33;4.97;;;2.70;;
41661;SDS011;27351;45.992;12.666;2023-12-20T05:02:58;4.50;;;2.27;;
41661;SDS011;27351;45.992;12.666;2023-12-20T05:05:24;4.63;;;2.20;;
41661;SDS011;27351;45.992;12.666;2023-12-20T05:07:50;5.85;;;2.40;;
41661;SDS011;27351;45.992;12.666;2023-12-20T05:10:15;4.87;;;2.40;;
41661;SDS011;27351;45.992;12.666;2023-12-20T05:12:41;6.32;;;2.50;;
41661;SDS011;27351;45.992;12.666;2023-12-20T05:15:07;3.93;;;2.37;;
41661;SDS011;27351;45.992;12.666;2023-12-20T05:21:01;4.78;;;2.30;;
41661;SDS011;27351;45.992;12.666;2023-12-20T05:23:27;4.90;;;2.23;;
41661;SDS011;27351;45.992;12.666;2023-12-20T05:25:52;4.80;;;2.23;;
41661;SDS011;27351;45.992;12.666;2023-12-20T05:28:18;5.70;;;2.20;;
41661;SDS011;27351;45.992;12.666;2023-12-20T05:30:44;5.30;;;2.40;;
41661;SDS011;27351;45.992;12.666;2023-12-20T05:33:09;4.37;;;2.10;;
41661;SDS011;27351;45.992;12.666;2023-12-20T05:35:35;4.77;;;2.20;;
41661;SDS011;27351;45.992;12.666;2023-12-20T05:38:00;3.30;;;1.80;;
41661;SDS011;27351;45.992;12.666;2023-12-20T05:40:26;4.90;;;1.97;;
41661;SDS011;27351;45.992;12.666;2023-12-20T05:42:51;6.20;;;2.70;;
41661;SDS011;27351;45.992;12.666;2023-12-20T05:45:17;4.20;;;2.30;;
41661;SDS011;27351;45.992;12.666;2023-12-20T05:47:43;5.18;;;2.35;;
41661;SDS011;27351;45.992;12.666;2023-12-20T05:50:08;5.53;;;2.10;;
41661;SDS011;27351;45.992;12.666;2023-12-20T05:52:34;5.32;;;2.25;;
41661;SDS011;27351;45.992;12.666;2023-12-20T05:54:59;4.72;;;1.98;;
41661;SDS011;27351;45.992;12.666;2023-12-20T05:57:26;5.43;;;2.40;;
41661;SDS011;27351;45.992;12.666;2023-12-20T05:59:52;5.97;;;2.03;;
41661;SDS011;27351;45.992;12.666;2023-12-20T06:02:18;5.33;;;2.20;;
41661;SDS011;27351;45.992;12.666;2023-12-20T06:04:43;5.27;;;2.33;;
41661;SDS011;27351;45.992;12.666;2023-12-20T06:07:12;4.65;;;2.08;;
41661;SDS011;27351;45.992;12.666;2023-12-20T06:09:38;5.18;;;2.08;;
41661;SDS011;27351;45.992;12.666;2023-12-20T06:12:04;2.73;;;1.83;;
41661;SDS011;27351;45.992;12.666;2023-12-20T06:14:29;4.07;;;1.83;;
41661;SDS011;27351;45.992;12.666;2023-12-20T06:16:56;4.82;;;2.00;;
41661;SDS011;27351;45.992;12.666;2023-12-20T06:19:22;5.00;;;1.77;;
41661;SDS011;27351;45.992;12.666;2023-12-20T06:21:48;4.35;;;2.10;;
41661;SDS011;27351;45.992;12.666;2023-12-20T06:24:13;4.05;;;1.77;;
41661;SDS011;27351;45.992;12.666;2023-12-20T06:26:39;7.18;;;2.60;;
41661;SDS011;27351;45.992;12.666;2023-12-20T06:29:05;3.53;;;2.13;;
41661;SDS011;27351;45.992;12.666;2023-12-20T06:31:30;5.93;;;2.10;;
41661;SDS011;27351;45.992;12.666;2023-12-20T06:33:58;3.58;;;1.98;;
41661;SDS011;27351;45.992;12.666;2023-12-20T06:36:25;3.70;;;1.65;;
41661;SDS011;27351;45.992;12.666;2023-12-20T06:38:51;2.50;;;1.45;;
41661;SDS011;27351;45.992;12.666;2023-12-20T06:41:17;4.05;;;1.60;;
41661;SDS011;27351;45.992;12.666;2023-12-20T06:43:42;3.83;;;1.75;;
41661;SDS011;27351;45.992;12.666;2023-12-20T06:46:08;4.72;;;2.35;;
41661;SDS011;27351;45.992;12.666;2023-12-20T06:48:34;5.88;;;2.58;;
41661;SDS011;27351;45.992;12.666;2023-12-20T06:51:00;6.63;;;2.58;;
41661;SDS011;27351;45.992;12.666;2023-12-20T06:53:26;15.68;;;7.22;;
41661;SDS011;27351;45.992;12.666;2023-12-20T06:55:51;16.23;;;6.53;;
41661;SDS011;27351;45.992;12.666;2023-12-20T06:58:17;14.33;;;6.30;;
41661;SDS011;27351;45.992;12.666;2023-12-20T07:00:44;13.83;;;6.70;;
41661;SDS011;27351;45.992;12.666;2023-12-20T07:03:10;8.88;;;3.20;;
41661;SDS011;27351;45.992;12.666;2023-12-20T07:05:35;6.53;;;2.97;;
41661;SDS011;27351;45.992;12.666;2023-12-20T07:08:01;7.50;;;3.23;;
41661;SDS011;27351;45.992;12.666;2023-12-20T07:10:26;8.57;;;4.13;;
41661;SDS011;27351;45.992;12.666;2023-12-20T07:12:52;8.53;;;4.50;;
41661;SDS011;27351;45.992;12.666;2023-12-20T07:15:20;7.38;;;3.60;;
41661;SDS011;27351;45.992;12.666;2023-12-20T07:17:46;6.32;;;3.33;;
41661;SDS011;27351;45.992;12.666;2023-12-20T07:20:11;5.33;;;2.13;;
41661;SDS011;27351;45.992;12.666;2023-12-20T07:22:37;4.60;;;2.23;;
41661;SDS011;27351;45.992;12.666;2023-12-20T07:25:03;5.63;;;2.60;;
41661;SDS011;27351;45.992;12.666;2023-12-20T07:27:28;7.10;;;3.35;;
41661;SDS011;27351;45.992;12.666;2023-12-20T07:29:54;5.13;;;2.72;;
41661;SDS011;27351;45.992;12.666;2023-12-20T07:32:19;6.17;;;3.33;;
41661;SDS011;27351;45.992;12.666;2023-12-20T07:34:45;8.97;;;3.50;;
41661;SDS011;27351;45.992;12.666;2023-12-20T07:37:10;6.17;;;2.83;;
41661;SDS011;27351;45.992;12.666;2023-12-20T07:39:37;9.82;;;3.72;;
41661;SDS011;27351;45.992;12.666;2023-12-20T07:42:03;5.50;;;2.80;;
41661;SDS011;27351;45.992;12.666;2023-12-20T07:44:28;7.67;;;3.23;;
41661;SDS011;27351;45.992;12.666;2023-12-20T07:46:54;7.23;;;2.67;;
41661;SDS011;27351;45.992;12.666;2023-12-20T07:49:19;5.77;;;2.50;;
41661;SDS011;27351;45.992;12.666;2023-12-20T07:51:45;4.47;;;2.37;;
41661;SDS011;27351;45.992;12.666;2023-12-20T07:54:10;3.40;;;1.70;;
41661;SDS011;27351;45.992;12.666;2023-12-20T07:56:36;2.87;;;1.77;;
41661;SDS011;27351;45.992;12.666;2023-12-20T07:59:01;3.83;;;1.83;;
41661;SDS011;27351;45.992;12.666;2023-12-20T08:01:27;6.43;;;2.17;;
41661;SDS011;27351;45.992;12.666;2023-12-20T08:03:52;3.80;;;1.80;;
41661;SDS011;27351;45.992;12.666;2023-12-20T08:06:18;4.57;;;1.70;;
41661;SDS011;27351;45.992;12.666;2023-12-20T08:08:43;3.17;;;1.90;;
41661;SDS011;27351;45.992;12.666;2023-12-20T08:11:09;5.87;;;2.00;;
41661;SDS011;27351;45.992;12.666;2023-12-20T08:13:34;6.73;;;2.20;;
41661;SDS011;27351;45.992;12.666;2023-12-20T08:16:00;4.50;;;2.00;;
41661;SDS011;27351;45.992;12.666;2023-12-20T08:18:28;3.65;;;1.50;;
41661;SDS011;27351;45.992;12.666;2023-12-20T08:20:53;4.60;;;2.10;;
41661;SDS011;27351;45.992;12.666;2023-12-20T08:23:19;5.70;;;1.77;;
41661;SDS011;27351;45.992;12.666;2023-12-20T08:25:46;6.47;;;1.50;;
41661;SDS011;27351;45.992;12.666;2023-12-20T08:28:12;4.13;;;1.35;;
41661;SDS011;27351;45.992;12.666;2023-12-20T08:30:37;3.13;;;1.60;;
41661;SDS011;27351;45.992;12.666;2023-12-20T08:33:03;3.20;;;1.30;;
41661;SDS011;27351;45.992;12.666;2023-12-20T08:35:29;3.22;;;1.45;;
41661;SDS011;27351;45.992;12.666;2023-12-20T08:37:55;2.70;;;1.40;;
41661;SDS011;27351;45.992;12.666;2023-12-20T08:40:21;4.47;;;1.85;;
41661;SDS011;27351;45.992;12.666;2023-12-20T08:42:47;4.70;;;1.83;;
41661;SDS011;27351;45.992;12.666;2023-12-20T08:45:13;3.40;;;1.70;;
41661;SDS011;27351;45.992;12.666;2023-12-20T08:47:38;3.95;;;1.48;;
41661;SDS011;27351;45.992;12.666;2023-12-20T08:50:04;3.83;;;1.90;;
41661;SDS011;27351;45.992;12.666;2023-12-20T08:52:29;4.93;;;2.25;;
41661;SDS011;27351;45.992;12.666;2023-12-20T08:54:55;4.82;;;1.92;;
41661;SDS011;27351;45.992;12.666;2023-12-20T08:57:20;5.60;;;2.33;;
41661;SDS011;27351;45.992;12.666;2023-12-20T08:59:49;3.40;;;1.77;;
41661;SDS011;27351;45.992;12.666;2023-12-20T09:02:16;4.93;;;2.10;;
41661;SDS011;27351;45.992;12.666;2023-12-20T09:04:41;5.15;;;2.22;;
41661;SDS011;27351;45.992;12.666;2023-12-20T09:07:20;7.60;;;2.47;;
41661;SDS011;27351;45.992;12.666;2023-12-20T09:09:45;7.30;;;2.58;;
41661;SDS011;27351;45.992;12.666;2023-12-20T09:12:11;5.20;;;2.65;;
41661;SDS011;27351;45.992;12.666;2023-12-20T09:14:36;5.87;;;2.07;;
41661;SDS011;27351;45.992;12.666;2023-12-20T09:17:02;4.67;;;2.27;;
41661;SDS011;27351;45.992;12.666;2023-12-20T09:19:28;5.22;;;2.03;;
41661;SDS011;27351;45.992;12.666;2023-12-20T09:21:56;4.82;;;2.20;;
41661;SDS011;27351;45.992;12.666;2023-12-20T09:24:21;6.65;;;2.10;;
41661;SDS011;27351;45.992;12.666;2023-12-20T09:26:47;6.38;;;2.00;;
41661;SDS011;27351;45.992;12.666;2023-12-20T09:29:12;3.72;;;2.05;;
41661;SDS011;27351;45.992;12.666;2023-12-20T09:31:41;5.10;;;2.40;;
41661;SDS011;27351;45.992;12.666;2023-12-20T09:34:09;4.75;;;2.03;;
41661;SDS011;27351;45.992;12.666;2023-12-20T09:36:34;5.53;;;2.17;;
41661;SDS011;27351;45.992;12.666;2023-12-20T09:39:01;4.80;;;2.25;;
41661;SDS011;27351;45.992;12.666;2023-12-20T09:41:28;3.67;;;1.90;;
41661;SDS011;27351;45.992;12.666;2023-12-20T09:43:54;3.53;;;1.75;;
41661;SDS011;27351;45.992;12.666;2023-12-20T09:46:21;4.65;;;2.25;;
41661;SDS011;27351;45.992;12.666;2023-12-20T09:48:50;6.40;;;2.38;;
41661;SDS011;27351;45.992;12.666;2023-12-20T09:51:15;5.80;;;1.95;;
41661;SDS011;27351;45.992;12.666;2023-12-20T09:53:41;5.55;;;2.25;;
41661;SDS011;27351;45.992;12.666;2023-12-20T09:56:07;5.63;;;2.30;;
41661;SDS011;27351;45.992;12.666;2023-12-20T09:58:35;5.13;;;2.30;;
41661;SDS011;27351;45.992;12.666;2023-12-20T10:01:01;5.28;;;2.70;;
41661;SDS011;27351;45.992;12.666;2023-12-20T10:03:26;6.22;;;2.50;;
41661;SDS011;27351;45.992;12.666;2023-12-20T10:05:53;5.97;;;3.22;;
41661;SDS011;27351;45.992;12.666;2023-12-20T10:08:21;6.23;;;2.70;;
41661;SDS011;27351;45.992;12.666;2023-12-20T10:10:47;7.82;;;2.70;;
41661;SDS011;27351;45.992;12.666;2023-12-20T10:13:13;7.93;;;3.13;;
41661;SDS011;27351;45.992;12.666;2023-12-20T10:15:39;6.35;;;2.90;;
41661;SDS011;27351;45.992;12.666;2023-12-20T10:18:06;7.63;;;3.22;;
41661;SDS011;27351;45.992;12.666;2023-12-20T10:20:32;6.90;;;2.95;;
41661;SDS011;27351;45.992;12.666;2023-12-20T10:22:58;7.32;;;3.03;;
41661;SDS011;27351;45.992;12.666;2023-12-20T10:25:24;5.15;;;2.75;;
41661;SDS011;27351;45.992;12.666;2023-12-20T10:27:50;7.78;;;3.30;;
41661;SDS011;27351;45.992;12.666;2023-12-20T10:30:33;6.55;;;3.55;;
41661;SDS011;27351;45.992;12.666;2023-12-20T10:32:59;6.70;;;3.25;;
41661;SDS011;27351;45.992;12.666;2023-12-20T10:35:24;8.93;;;3.53;;
41661;SDS011;27351;45.992;12.666;2023-12-20T10:37:52;9.45;;;4.32;;
41661;SDS011;27351;45.992;12.666;2023-12-20T10:40:20;9.35;;;4.55;;
41661;SDS011;27351;45.992;12.666;2023-12-20T10:42:46;9.95;;;5.05;;
41661;SDS011;27351;45.992;12.666;2023-12-20T10:45:12;11.30;;;6.00;;
41661;SDS011;27351;45.992;12.666;2023-12-20T10:47:38;12.37;;;5.87;;
41661;SDS011;27351;45.992;12.666;2023-12-20T10:50:05;10.55;;;4.88;;
41661;SDS011;27351;45.992;12.666;2023-12-20T10:52:31;10.45;;;5.57;;
41661;SDS011;27351;45.992;12.666;2023-12-20T10:54:57;10.32;;;5.25;;
41661;SDS011;27351;45.992;12.666;2023-12-20T10:57:23;8.83;;;4.00;;
41661;SDS011;27351;45.992;12.666;2023-12-20T10:59:52;8.05;;;4.13;;
41661;SDS011;27351;45.992;12.666;2023-12-20T11:02:19;8.40;;;4.00;;
41661;SDS011;27351;45.992;12.666;2023-12-20T11:07:16;9.10;;;4.60;;
41661;SDS011;27351;45.992;12.666;2023-12-20T11:09:43;11.27;;;5.35;;
41661;SDS011;27351;45.992;12.666;2023-12-20T11:13:13;12.52;;;5.95;;
41661;SDS011;27351;45.992;12.666;2023-12-20T11:15:06;12.13;;;6.28;;
41661;SDS011;27351;45.992;12.666;2023-12-20T11:17:32;12.20;;;6.53;;
41661;SDS011;27351;45.992;12.666;2023-12-20T11:22:29;13.50;;;6.85;;
41661;SDS011;27351;45.992;12.666;2023-12-20T11:24:58;11.73;;;6.45;;
41661;SDS011;27351;45.992;12.666;2023-12-20T11:27:23;10.63;;;5.78;;
41661;SDS011;27351;45.992;12.666;2023-12-20T11:29:56;11.10;;;5.13;;
41661;SDS011;27351;45.992;12.666;2023-12-20T11:34:55;7.03;;;3.83;;
41661;SDS011;27351;45.992;12.666;2023-12-20T11:37:21;7.07;;;4.25;;
41661;SDS011;27351;45.992;12.666;2023-12-20T11:39:56;7.20;;;3.55;;
41661;SDS011;27351;45.992;12.666;2023-12-20T11:42:25;7.90;;;3.78;;
41661;SDS011;27351;45.992;12.666;2023-12-20T11:44:50;11.25;;;3.97;;
41661;SDS011;27351;45.992;12.666;2023-12-20T11:47:16;8.02;;;4.07;;
41661;SDS011;27351;45.992;12.666;2023-12-20T11:49:46;7.65;;;3.70;;
41661;SDS011;27351;45.992;12.666;2023-12-20T11:52:12;7.13;;;3.60;;
41661;SDS011;27351;45.992;12.666;2023-12-20T11:54:38;8.45;;;3.97;;
41661;SDS011;27351;45.992;12.666;2023-12-20T11:57:04;8.25;;;3.58;;
41661;SDS011;27351;45.992;12.666;2023-12-20T11:59:30;8.65;;;3.75;;
41661;SDS011;27351;45.992;12.666;2023-12-20T12:01:56;8.30;;;3.65;;
41661;SDS011;27351;45.992;12.666;2023-12-20T12:04:26;8.57;;;3.90;;
41661;SDS011;27351;45.992;12.666;2023-12-20T12:06:51;7.82;;;3.72;;
41661;SDS011;27351;45.992;12.666;2023-12-20T12:09:17;9.77;;;3.72;;
41661;SDS011;27351;45.992;12.666;2023-12-20T12:11:43;8.00;;;4.20;;
41661;SDS011;27351;45.992;12.666;2023-12-20T12:14:10;7.80;;;3.45;;
41661;SDS011;27351;45.992;12.666;2023-12-20T12:16:35;9.20;;;3.55;;
41661;SDS011;27351;45.992;12.666;2023-12-20T12:19:01;7.30;;;3.55;;
41661;SDS011;27351;45.992;12.666;2023-12-20T12:21:26;8.23;;;3.55;;
41661;SDS011;27351;45.992;12.666;2023-12-20T12:23:52;9.60;;;3.97;;
41661;SDS011;27351;45.992;12.666;2023-12-20T12:26:18;8.13;;;3.85;;
41661;SDS011;27351;45.992;12.666;2023-12-20T12:28:44;8.40;;;3.78;;
41661;SDS011;27351;45.992;12.666;2023-12-20T12:31:13;9.87;;;4.30;;
41661;SDS011;27351;45.992;12.666;2023-12-20T12:33:41;8.73;;;4.20;;
41661;SDS011;27351;45.992;12.666;2023-12-20T12:36:06;11.82;;;4.78;;
41661;SDS011;27351;45.992;12.666;2023-12-20T12:38:33;10.83;;;5.43;;
41661;SDS011;27351;45.992;12.666;2023-12-20T12:40:58;10.73;;;4.80;;
41661;SDS011;27351;45.992;12.666;2023-12-20T12:43:25;10.45;;;4.88;;
41661;SDS011;27351;45.992;12.666;2023-12-20T12:45:51;11.70;;;4.80;;
41661;SDS011;27351;45.992;12.666;2023-12-20T12:48:16;11.97;;;5.57;;
41661;SDS011;27351;45.992;12.666;2023-12-20T12:50:42;11.97;;;5.63;;
41661;SDS011;27351;45.992;12.666;2023-12-20T12:53:07;10.50;;;5.77;;
41661;SDS011;27351;45.992;12.666;2023-12-20T12:55:34;12.20;;;6.20;;
41661;SDS011;27351;45.992;12.666;2023-12-20T12:58:00;11.48;;;5.97;;
41661;SDS011;27351;45.992;12.666;2023-12-20T13:00:26;12.43;;;6.55;;
41661;SDS011;27351;45.992;12.666;2023-12-20T13:02:52;12.40;;;6.15;;
41661;SDS011;27351;45.992;12.666;2023-12-20T13:05:17;10.00;;;5.53;;
41661;SDS011;27351;45.992;12.666;2023-12-20T13:07:43;11.90;;;6.93;;
41661;SDS011;27351;45.992;12.666;2023-12-20T13:10:10;12.32;;;6.05;;
41661;SDS011;27351;45.992;12.666;2023-12-20T13:12:36;13.50;;;6.18;;
41661;SDS011;27351;45.992;12.666;2023-12-20T13:15:01;12.00;;;6.43;;
41661;SDS011;27351;45.992;12.666;2023-12-20T13:17:29;13.57;;;6.97;;
41661;SDS011;27351;45.992;12.666;2023-12-20T13:19:55;14.00;;;7.47;;
41661;SDS011;27351;45.992;12.666;2023-12-20T13:24:48;14.00;;;7.32;;
41661;SDS011;27351;45.992;12.666;2023-12-20T13:27:14;15.77;;;8.75;;
41661;SDS011;27351;45.992;12.666;2023-12-20T13:29:39;14.05;;;7.45;;
41661;SDS011;27351;45.992;12.666;2023-12-20T13:32:05;15.57;;;8.23;;
41661;SDS011;27351;45.992;12.666;2023-12-20T13:34:31;15.13;;;8.02;;
41661;SDS011;27351;45.992;12.666;2023-12-20T13:36:56;14.50;;;9.10;;
41661;SDS011;27351;45.992;12.666;2023-12-20T13:39:22;17.37;;;8.87;;
41661;SDS011;27351;45.992;12.666;2023-12-20T13:41:47;17.97;;;9.00;;
41661;SDS011;27351;45.992;12.666;2023-12-20T13:44:13;18.43;;;9.73;;
41661;SDS011;27351;45.992;12.666;2023-12-20T13:46:39;17.88;;;9.77;;
41661;SDS011;27351;45.992;12.666;2023-12-20T13:49:05;18.83;;;9.73;;
41661;SDS011;27351;45.992;12.666;2023-12-20T13:51:30;18.50;;;10.27;;
41661;SDS011;27351;45.992;12.666;2023-12-20T13:53:56;20.90;;;11.47;;
41661;SDS011;27351;45.992;12.666;2023-12-20T13:56:22;20.38;;;10.70;;
41661;SDS011;27351;45.992;12.666;2023-12-20T13:58:48;19.55;;;11.05;;
41661;SDS011;27351;45.992;12.666;2023-12-20T14:01:14;18.37;;;10.07;;
41661;SDS011;27351;45.992;12.666;2023-12-20T14:03:40;22.08;;;11.30;;
41661;SDS011;27351;45.992;12.666;2023-12-20T14:06:06;23.23;;;11.18;;
41661;SDS011;27351;45.992;12.666;2023-12-20T14:08:32;20.33;;;10.87;;
41661;SDS011;27351;45.992;12.666;2023-12-20T14:10:57;19.63;;;11.47;;
41661;SDS011;27351;45.992;12.666;2023-12-20T14:13:23;22.90;;;10.73;;
41661;SDS011;27351;45.992;12.666;2023-12-20T14:15:48;20.70;;;11.38;;
41661;SDS011;27351;45.992;12.666;2023-12-20T14:18:14;24.08;;;11.45;;
41661;SDS011;27351;45.992;12.666;2023-12-20T14:20:40;24.33;;;12.13;;
41661;SDS011;27351;45.992;12.666;2023-12-20T14:23:07;19.55;;;11.27;;
41661;SDS011;27351;45.992;12.666;2023-12-20T14:25:34;20.27;;;11.23;;
41661;SDS011;27351;45.992;12.666;2023-12-20T14:28:03;21.42;;;11.80;;
41661;SDS011;27351;45.992;12.666;2023-12-20T14:30:28;20.05;;;11.27;;
41661;SDS011;27351;45.992;12.666;2023-12-20T14:32:54;19.52;;;10.93;;
41661;SDS011;27351;45.992;12.666;2023-12-20T14:35:19;21.73;;;11.30;;
41661;SDS011;27351;45.992;12.666;2023-12-20T14:37:45;21.10;;;11.77;;
41661;SDS011;27351;45.992;12.666;2023-12-20T14:40:11;17.87;;;10.23;;